sensor_id;sensor_type;location;lat;lon;timestamp;temperature;humidity
9915;DHT22;4996;48.746;9.174;2023-04-24T00:00:14;12.00;99.90
9915;DHT22;4996;48.746;9.174;2023-04-24T00:02:41;12.00;99.90
9915;DHT22;4996;48.746;9.174;2023-04-24T00:05:11;12.00;99.90
9915;DHT22;4996;48.746;9.174;2023-04-24T00:07:37;12.20;99.90
9915;DHT22;4996;48.746;9.174;2023-04-24T00:10:03;12.00;99.90
9915;DHT22;4996;48.746;9.174;2023-04-24T00:12:29;12.10;99.90
9915;DHT22;4996;48.746;9.174;2023-04-24T00:14:55;12.10;99.90
9915;DHT22;4996;48.746;9.174;2023-04-24T00:17:20;12.00;99.90
9915;DHT22;4996;48.746;9.174;2023-04-24T00:19:47;12.10;99.90
9915;DHT22;4996;48.746;9.174;2023-04-24T00:22:13;12.10;99.90
9915;DHT22;4996;48.746;9.174;2023-04-24T00:24:40;12.20;99.90
9915;DHT22;4996;48.746;9.174;2023-04-24T00:27:05;12.00;99.90
9915;DHT22;4996;48.746;9.174;2023-04-24T00:29:31;12.00;99.90
9915;DHT22;4996;48.746;9.174;2023-04-24T00:31:56;11.90;99.90
9915;DHT22;4996;48.746;9.174;2023-04-24T00:34:22;12.00;99.90
9915;DHT22;4996;48.746;9.174;2023-04-24T00:36:48;12.00;99.90
9915;DHT22;4996;48.746;9.174;2023-04-24T00:39:18;11.90;99.90
9915;DHT22;4996;48.746;9.174;2023-04-24T00:41:43;12.00;99.90
9915;DHT22;4996;48.746;9.174;2023-04-24T00:44:09;12.20;99.90
9915;DHT22;4996;48.746;9.174;2023-04-24T00:46:34;12.20;99.90
9915;DHT22;4996;48.746;9.174;2023-04-24T00:49:01;12.20;99.90
9915;DHT22;4996;48.746;9.174;2023-04-24T00:51:27;12.20;99.90
9915;DHT22;4996;48.746;9.174;2023-04-24T00:53:53;12.20;99.90
9915;DHT22;4996;48.746;9.174;2023-04-24T00:56:18;12.20;99.90
9915;DHT22;4996;48.746;9.174;2023-04-24T00:58:44;12.30;99.90
9915;DHT22;4996;48.746;9.174;2023-04-24T01:01:10;12.40;99.90
9915;DHT22;4996;48.746;9.174;2023-04-24T01:03:37;12.40;99.90
9915;DHT22;4996;48.746;9.174;2023-04-24T01:06:04;12.30;99.90
9915;DHT22;4996;48.746;9.174;2023-04-24T01:08:30;12.40;99.90
9915;DHT22;4996;48.746;9.174;2023-04-24T01:10:57;12.30;99.90
9915;DHT22;4996;48.746;9.174;2023-04-24T01:13:23;12.40;99.90
9915;DHT22;4996;48.746;9.174;2023-04-24T01:15:49;12.40;99.90
9915;DHT22;4996;48.746;9.174;2023-04-24T01:18:15;12.50;99.90
9915;DHT22;4996;48.746;9.174;2023-04-24T01:20:43;12.50;99.90
9915;DHT22;4996;48.746;9.174;2023-04-24T01:23:10;12.50;99.90
9915;DHT22;4996;48.746;9.174;2023-04-24T01:25:36;12.50;99.90
9915;DHT22;4996;48.746;9.174;2023-04-24T01:28:02;12.40;99.90
9915;DHT22;4996;48.746;9.174;2023-04-24T01:30:28;12.40;99.90
9915;DHT22;4996;48.746;9.174;2023-04-24T01:32:53;12.40;99.90
9915;DHT22;4996;48.746;9.174;2023-04-24T01:35:20;12.50;99.90
9915;DHT22;4996;48.746;9.174;2023-04-24T01:37:45;12.60;99.90
9915;DHT22;4996;48.746;9.174;2023-04-24T01:40:11;12.40;99.90
9915;DHT22;4996;48.746;9.174;2023-04-24T01:42:37;12.50;99.90
9915;DHT22;4996;48.746;9.174;2023-04-24T01:45:04;12.40;99.90
9915;DHT22;4996;48.746;9.174;2023-04-24T01:47:31;12.30;99.90
9915;DHT22;4996;48.746;9.174;2023-04-24T01:49:57;12.40;99.90
9915;DHT22;4996;48.746;9.174;2023-04-24T01:52:22;12.30;99.90
9915;DHT22;4996;48.746;9.174;2023-04-24T01:54:48;12.30;99.90
9915;DHT22;4996;48.746;9.174;2023-04-24T01:57:14;12.30;99.90
9915;DHT22;4996;48.746;9.174;2023-04-24T01:59:41;12.30;99.90
9915;DHT22;4996;48.746;9.174;2023-04-24T02:02:07;12.40;99.90
9915;DHT22;4996;48.746;9.174;2023-04-24T02:04:32;12.40;99.90
9915;DHT22;4996;48.746;9.174;2023-04-24T02:06:58;12.30;99.90
9915;DHT22;4996;48.746;9.174;2023-04-24T02:09:23;12.30;99.90
9915;DHT22;4996;48.746;9.174;2023-04-24T02:11:49;12.40;99.90
9915;DHT22;4996;48.746;9.174;2023-04-24T02:14:14;12.30;99.90
9915;DHT22;4996;48.746;9.174;2023-04-24T02:16:40;12.30;99.90
9915;DHT22;4996;48.746;9.174;2023-04-24T02:19:05;12.40;99.90
9915;DHT22;4996;48.746;9.174;2023-04-24T02:21:31;12.30;99.90
9915;DHT22;4996;48.746;9.174;2023-04-24T02:23:57;12.10;99.90
9915;DHT22;4996;48.746;9.174;2023-04-24T02:26:22;12.10;99.90
9915;DHT22;4996;48.746;9.174;2023-04-24T02:28:48;12.10;99.90
9915;DHT22;4996;48.746;9.174;2023-04-24T02:31:14;12.10;99.90
9915;DHT22;4996;48.746;9.174;2023-04-24T02:33:39;12.00;99.90
9915;DHT22;4996;48.746;9.174;2023-04-24T02:36:05;12.00;99.90
9915;DHT22;4996;48.746;9.174;2023-04-24T02:38:31;12.00;99.90
9915;DHT22;4996;48.746;9.174;2023-04-24T02:40:56;11.90;99.90
9915;DHT22;4996;48.746;9.174;2023-04-24T02:43:22;12.00;99.90
9915;DHT22;4996;48.746;9.174;2023-04-24T02:45:47;11.90;99.90
9915;DHT22;4996;48.746;9.174;2023-04-24T02:48:13;12.00;99.90
9915;DHT22;4996;48.746;9.174;2023-04-24T02:50:38;12.10;99.90
9915;DHT22;4996;48.746;9.174;2023-04-24T02:53:04;12.00;99.90
9915;DHT22;4996;48.746;9.174;2023-04-24T02:55:30;12.10;99.90
9915;DHT22;4996;48.746;9.174;2023-04-24T02:57:55;12.10;99.90
9915;DHT22;4996;48.746;9.174;2023-04-24T03:00:21;12.10;99.90
9915;DHT22;4996;48.746;9.174;2023-04-24T03:02:46;12.10;99.90
9915;DHT22;4996;48.746;9.174;2023-04-24T03:05:12;12.00;99.90
9915;DHT22;4996;48.746;9.174;2023-04-24T03:07:38;11.80;99.90
9915;DHT22;4996;48.746;9.174;2023-04-24T03:10:04;11.90;99.90
9915;DHT22;4996;48.746;9.174;2023-04-24T03:12:31;11.80;99.90
9915;DHT22;4996;48.746;9.174;2023-04-24T03:14:56;11.70;99.90
9915;DHT22;4996;48.746;9.174;2023-04-24T03:17:22;11.60;99.90
9915;DHT22;4996;48.746;9.174;2023-04-24T03:19:47;11.70;99.90
9915;DHT22;4996;48.746;9.174;2023-04-24T03:22:13;11.60;99.90
9915;DHT22;4996;48.746;9.174;2023-04-24T03:24:38;11.60;99.90
9915;DHT22;4996;48.746;9.174;2023-04-24T03:27:04;11.60;99.90
9915;DHT22;4996;48.746;9.174;2023-04-24T03:29:30;11.50;99.90
9915;DHT22;4996;48.746;9.174;2023-04-24T03:31:55;11.50;99.90
9915;DHT22;4996;48.746;9.174;2023-04-24T03:34:21;11.40;99.90
9915;DHT22;4996;48.746;9.174;2023-04-24T03:36:46;11.50;99.90
9915;DHT22;4996;48.746;9.174;2023-04-24T03:39:15;11.50;99.90
9915;DHT22;4996;48.746;9.174;2023-04-24T03:41:40;11.50;99.90
9915;DHT22;4996;48.746;9.174;2023-04-24T03:44:06;11.50;99.90
9915;DHT22;4996;48.746;9.174;2023-04-24T03:46:31;11.60;99.90
9915;DHT22;4996;48.746;9.174;2023-04-24T03:48:57;11.60;99.90
9915;DHT22;4996;48.746;9.174;2023-04-24T03:51:22;11.60;99.90
9915;DHT22;4996;48.746;9.174;2023-04-24T03:53:49;11.60;99.90
9915;DHT22;4996;48.746;9.174;2023-04-24T03:56:14;11.60;99.90
9915;DHT22;4996;48.746;9.174;2023-04-24T03:58:40;11.60;99.90
9915;DHT22;4996;48.746;9.174;2023-04-24T04:01:05;11.60;99.90
9915;DHT22;4996;48.746;9.174;2023-04-24T04:03:31;11.60;99.90
9915;DHT22;4996;48.746;9.174;2023-04-24T04:05:57;11.30;99.90
9915;DHT22;4996;48.746;9.174;2023-04-24T04:08:22;11.30;99.90
9915;DHT22;4996;48.746;9.174;2023-04-24T04:10:48;11.40;99.90
9915;DHT22;4996;48.746;9.174;2023-04-24T04:13:13;11.40;99.90
9915;DHT22;4996;48.746;9.174;2023-04-24T04:15:39;11.40;99.90
9915;DHT22;4996;48.746;9.174;2023-04-24T04:18:04;11.50;99.90
9915;DHT22;4996;48.746;9.174;2023-04-24T04:20:30;11.90;99.90
9915;DHT22;4996;48.746;9.174;2023-04-24T04:22:56;11.50;99.90
9915;DHT22;4996;48.746;9.174;2023-04-24T04:25:21;11.50;99.90
9915;DHT22;4996;48.746;9.174;2023-04-24T04:27:48;11.60;99.90
9915;DHT22;4996;48.746;9.174;2023-04-24T04:30:14;11.60;99.90
9915;DHT22;4996;48.746;9.174;2023-04-24T04:32:40;11.60;99.90
9915;DHT22;4996;48.746;9.174;2023-04-24T04:35:05;11.10;99.90
9915;DHT22;4996;48.746;9.174;2023-04-24T04:37:32;10.80;99.90
9915;DHT22;4996;48.746;9.174;2023-04-24T04:39:59;10.90;99.90
9915;DHT22;4996;48.746;9.174;2023-04-24T04:42:25;10.90;99.90
9915;DHT22;4996;48.746;9.174;2023-04-24T04:44:52;10.80;99.90
9915;DHT22;4996;48.746;9.174;2023-04-24T04:47:18;10.80;99.90
9915;DHT22;4996;48.746;9.174;2023-04-24T04:49:46;10.80;99.90
9915;DHT22;4996;48.746;9.174;2023-04-24T04:52:13;10.70;99.90
9915;DHT22;4996;48.746;9.174;2023-04-24T04:54:38;10.50;99.90
9915;DHT22;4996;48.746;9.174;2023-04-24T04:57:05;10.40;99.90
9915;DHT22;4996;48.746;9.174;2023-04-24T04:59:30;10.40;99.90
9915;DHT22;4996;48.746;9.174;2023-04-24T05:01:56;10.40;99.90
9915;DHT22;4996;48.746;9.174;2023-04-24T05:04:21;10.50;99.90
9915;DHT22;4996;48.746;9.174;2023-04-24T05:06:47;10.60;99.90
9915;DHT22;4996;48.746;9.174;2023-04-24T05:09:12;10.60;99.90
9915;DHT22;4996;48.746;9.174;2023-04-24T05:11:38;10.60;99.90
9915;DHT22;4996;48.746;9.174;2023-04-24T05:14:03;10.70;99.90
9915;DHT22;4996;48.746;9.174;2023-04-24T05:16:29;10.60;99.90
9915;DHT22;4996;48.746;9.174;2023-04-24T05:18:56;10.70;99.90
9915;DHT22;4996;48.746;9.174;2023-04-24T05:21:21;10.70;99.90
9915;DHT22;4996;48.746;9.174;2023-04-24T05:23:47;10.70;99.90
9915;DHT22;4996;48.746;9.174;2023-04-24T05:26:13;10.80;99.90
9915;DHT22;4996;48.746;9.174;2023-04-24T05:28:39;10.70;99.90
9915;DHT22;4996;48.746;9.174;2023-04-24T05:31:05;10.70;99.90
9915;DHT22;4996;48.746;9.174;2023-04-24T05:33:31;10.60;99.90
9915;DHT22;4996;48.746;9.174;2023-04-24T05:35:57;10.60;99.90
9915;DHT22;4996;48.746;9.174;2023-04-24T05:38:23;10.60;99.90
9915;DHT22;4996;48.746;9.174;2023-04-24T05:40:48;10.70;99.90
9915;DHT22;4996;48.746;9.174;2023-04-24T05:43:14;10.70;99.90
9915;DHT22;4996;48.746;9.174;2023-04-24T05:45:39;10.80;99.90
9915;DHT22;4996;48.746;9.174;2023-04-24T05:48:05;10.70;99.90
9915;DHT22;4996;48.746;9.174;2023-04-24T05:50:31;10.70;99.90
9915;DHT22;4996;48.746;9.174;2023-04-24T05:52:56;10.90;99.90
9915;DHT22;4996;48.746;9.174;2023-04-24T05:55:27;11.00;99.90
9915;DHT22;4996;48.746;9.174;2023-04-24T05:57:52;10.90;99.90
9915;DHT22;4996;48.746;9.174;2023-04-24T06:00:18;11.00;99.90
9915;DHT22;4996;48.746;9.174;2023-04-24T06:02:45;11.10;99.90
9915;DHT22;4996;48.746;9.174;2023-04-24T06:05:11;11.20;99.90
9915;DHT22;4996;48.746;9.174;2023-04-24T06:07:37;11.20;99.90
9915;DHT22;4996;48.746;9.174;2023-04-24T06:10:02;11.30;99.90
9915;DHT22;4996;48.746;9.174;2023-04-24T06:12:28;11.30;99.90
9915;DHT22;4996;48.746;9.174;2023-04-24T06:14:54;11.40;99.90
9915;DHT22;4996;48.746;9.174;2023-04-24T06:17:21;11.40;99.90
9915;DHT22;4996;48.746;9.174;2023-04-24T06:19:46;11.30;99.90
9915;DHT22;4996;48.746;9.174;2023-04-24T06:22:12;11.40;99.90
9915;DHT22;4996;48.746;9.174;2023-04-24T06:24:39;11.40;99.90
9915;DHT22;4996;48.746;9.174;2023-04-24T06:27:05;11.50;99.90
9915;DHT22;4996;48.746;9.174;2023-04-24T06:29:31;11.40;99.90
9915;DHT22;4996;48.746;9.174;2023-04-24T06:31:56;11.30;99.90
9915;DHT22;4996;48.746;9.174;2023-04-24T06:34:22;11.30;99.90
9915;DHT22;4996;48.746;9.174;2023-04-24T06:36:47;11.50;99.90
9915;DHT22;4996;48.746;9.174;2023-04-24T06:39:13;11.50;99.90
9915;DHT22;4996;48.746;9.174;2023-04-24T06:41:38;11.60;99.90
9915;DHT22;4996;48.746;9.174;2023-04-24T06:44:05;11.70;99.90
9915;DHT22;4996;48.746;9.174;2023-04-24T06:46:31;11.80;99.90
9915;DHT22;4996;48.746;9.174;2023-04-24T06:48:56;12.00;99.90
9915;DHT22;4996;48.746;9.174;2023-04-24T06:51:23;12.20;99.90
9915;DHT22;4996;48.746;9.174;2023-04-24T06:53:49;12.30;99.90
9915;DHT22;4996;48.746;9.174;2023-04-24T06:56:15;12.40;99.90
9915;DHT22;4996;48.746;9.174;2023-04-24T06:58:40;12.40;99.90
9915;DHT22;4996;48.746;9.174;2023-04-24T07:01:06;12.60;99.90
9915;DHT22;4996;48.746;9.174;2023-04-24T07:03:31;12.70;99.90
9915;DHT22;4996;48.746;9.174;2023-04-24T07:05:57;12.70;99.90
9915;DHT22;4996;48.746;9.174;2023-04-24T07:08:23;12.90;99.90
9915;DHT22;4996;48.746;9.174;2023-04-24T07:10:49;12.90;99.90
9915;DHT22;4996;48.746;9.174;2023-04-24T07:13:16;13.00;99.90
9915;DHT22;4996;48.746;9.174;2023-04-24T07:15:42;13.00;99.90
9915;DHT22;4996;48.746;9.174;2023-04-24T07:18:08;13.20;99.90
9915;DHT22;4996;48.746;9.174;2023-04-24T07:20:34;12.80;99.90
9915;DHT22;4996;48.746;9.174;2023-04-24T07:23:00;12.40;99.90
9915;DHT22;4996;48.746;9.174;2023-04-24T07:25:25;12.30;99.90
9915;DHT22;4996;48.746;9.174;2023-04-24T07:27:51;12.40;99.90
9915;DHT22;4996;48.746;9.174;2023-04-24T07:30:16;12.10;99.90
9915;DHT22;4996;48.746;9.174;2023-04-24T07:32:42;12.10;99.90
9915;DHT22;4996;48.746;9.174;2023-04-24T07:35:07;12.00;99.90
9915;DHT22;4996;48.746;9.174;2023-04-24T07:37:35;12.20;99.90
9915;DHT22;4996;48.746;9.174;2023-04-24T07:40:00;12.10;99.90
9915;DHT22;4996;48.746;9.174;2023-04-24T07:42:26;12.20;99.90
9915;DHT22;4996;48.746;9.174;2023-04-24T07:44:51;12.20;99.90
9915;DHT22;4996;48.746;9.174;2023-04-24T07:47:17;12.30;99.90
9915;DHT22;4996;48.746;9.174;2023-04-24T07:49:43;12.40;99.90
9915;DHT22;4996;48.746;9.174;2023-04-24T07:52:09;12.30;99.90
9915;DHT22;4996;48.746;9.174;2023-04-24T07:54:34;12.40;99.90
9915;DHT22;4996;48.746;9.174;2023-04-24T07:57:00;12.60;99.90
9915;DHT22;4996;48.746;9.174;2023-04-24T07:59:26;12.60;99.90
9915;DHT22;4996;48.746;9.174;2023-04-24T08:01:51;12.40;99.90
9915;DHT22;4996;48.746;9.174;2023-04-24T08:04:17;12.30;99.90
9915;DHT22;4996;48.746;9.174;2023-04-24T08:06:43;12.20;99.90
9915;DHT22;4996;48.746;9.174;2023-04-24T08:09:09;12.40;99.90
9915;DHT22;4996;48.746;9.174;2023-04-24T08:11:34;12.30;99.90
9915;DHT22;4996;48.746;9.174;2023-04-24T08:14:00;12.20;99.90
9915;DHT22;4996;48.746;9.174;2023-04-24T08:16:25;12.30;99.90
9915;DHT22;4996;48.746;9.174;2023-04-24T08:18:52;12.00;99.90
9915;DHT22;4996;48.746;9.174;2023-04-24T08:21:18;11.90;99.90
9915;DHT22;4996;48.746;9.174;2023-04-24T08:23:44;11.80;99.90
9915;DHT22;4996;48.746;9.174;2023-04-24T08:26:11;12.00;99.90
9915;DHT22;4996;48.746;9.174;2023-04-24T08:28:37;12.00;99.90
9915;DHT22;4996;48.746;9.174;2023-04-24T08:31:03;12.10;99.90
9915;DHT22;4996;48.746;9.174;2023-04-24T08:33:28;12.70;99.90
9915;DHT22;4996;48.746;9.174;2023-04-24T08:36:00;13.00;99.90
9915;DHT22;4996;48.746;9.174;2023-04-24T08:38:26;13.20;99.90
9915;DHT22;4996;48.746;9.174;2023-04-24T08:40:52;13.30;99.90
9915;DHT22;4996;48.746;9.174;2023-04-24T08:43:18;13.50;99.90
9915;DHT22;4996;48.746;9.174;2023-04-24T08:45:46;13.80;99.90
9915;DHT22;4996;48.746;9.174;2023-04-24T08:48:11;13.50;99.90
9915;DHT22;4996;48.746;9.174;2023-04-24T08:50:38;13.50;99.90
9915;DHT22;4996;48.746;9.174;2023-04-24T08:53:04;13.70;99.90
9915;DHT22;4996;48.746;9.174;2023-04-24T08:55:33;13.80;99.90
9915;DHT22;4996;48.746;9.174;2023-04-24T08:58:01;13.70;99.90
9915;DHT22;4996;48.746;9.174;2023-04-24T09:00:28;13.90;99.90
9915;DHT22;4996;48.746;9.174;2023-04-24T09:02:53;13.90;99.90
9915;DHT22;4996;48.746;9.174;2023-04-24T09:05:21;14.00;99.90
9915;DHT22;4996;48.746;9.174;2023-04-24T09:07:53;13.80;99.90
9915;DHT22;4996;48.746;9.174;2023-04-24T09:10:24;13.70;99.90
9915;DHT22;4996;48.746;9.174;2023-04-24T09:12:52;13.30;99.90
9915;DHT22;4996;48.746;9.174;2023-04-24T09:15:19;13.50;99.90
9915;DHT22;4996;48.746;9.174;2023-04-24T09:17:45;13.80;99.90
9915;DHT22;4996;48.746;9.174;2023-04-24T09:20:11;13.60;99.90
9915;DHT22;4996;48.746;9.174;2023-04-24T09:22:37;13.10;99.90
9915;DHT22;4996;48.746;9.174;2023-04-24T09:25:05;12.90;99.90
9915;DHT22;4996;48.746;9.174;2023-04-24T09:27:35;12.90;99.90
9915;DHT22;4996;48.746;9.174;2023-04-24T09:30:02;12.90;99.90
9915;DHT22;4996;48.746;9.174;2023-04-24T09:32:28;12.60;99.90
9915;DHT22;4996;48.746;9.174;2023-04-24T09:35:14;12.70;99.90
9915;DHT22;4996;48.746;9.174;2023-04-24T09:37:45;13.40;99.90
9915;DHT22;4996;48.746;9.174;2023-04-24T09:40:15;13.50;99.90
9915;DHT22;4996;48.746;9.174;2023-04-24T09:42:46;13.50;99.90
9915;DHT22;4996;48.746;9.174;2023-04-24T09:45:16;13.80;99.90
9915;DHT22;4996;48.746;9.174;2023-04-24T09:47:42;14.10;99.90
9915;DHT22;4996;48.746;9.174;2023-04-24T09:50:13;14.40;99.90
9915;DHT22;4996;48.746;9.174;2023-04-24T09:55:20;14.50;99.90
9915;DHT22;4996;48.746;9.174;2023-04-24T09:57:54;14.10;99.90
9915;DHT22;4996;48.746;9.174;2023-04-24T10:00:28;13.60;99.90
9915;DHT22;4996;48.746;9.174;2023-04-24T10:03:01;13.30;99.90
9915;DHT22;4996;48.746;9.174;2023-04-24T10:05:32;12.80;99.90
9915;DHT22;4996;48.746;9.174;2023-04-24T10:08:11;12.60;99.90
9915;DHT22;4996;48.746;9.174;2023-04-24T10:10:42;12.60;99.90
9915;DHT22;4996;48.746;9.174;2023-04-24T10:13:13;12.70;99.90
9915;DHT22;4996;48.746;9.174;2023-04-24T10:15:40;12.60;99.90
9915;DHT22;4996;48.746;9.174;2023-04-24T10:18:06;12.60;99.90
9915;DHT22;4996;48.746;9.174;2023-04-24T10:20:33;12.80;99.90
9915;DHT22;4996;48.746;9.174;2023-04-24T10:23:00;13.20;99.90
9915;DHT22;4996;48.746;9.174;2023-04-24T10:25:29;13.80;99.90
9915;DHT22;4996;48.746;9.174;2023-04-24T10:27:56;14.10;99.90
9915;DHT22;4996;48.746;9.174;2023-04-24T10:30:23;14.20;99.90
9915;DHT22;4996;48.746;9.174;2023-04-24T10:32:49;14.00;99.90
9915;DHT22;4996;48.746;9.174;2023-04-24T10:35:15;14.10;99.90
9915;DHT22;4996;48.746;9.174;2023-04-24T10:37:45;14.40;99.90
9915;DHT22;4996;48.746;9.174;2023-04-24T10:40:16;14.50;99.90
9915;DHT22;4996;48.746;9.174;2023-04-24T10:42:42;14.50;99.80
9915;DHT22;4996;48.746;9.174;2023-04-24T10:45:19;14.50;99.30
9915;DHT22;4996;48.746;9.174;2023-04-24T10:48:08;13.90;99.90
9915;DHT22;4996;48.746;9.174;2023-04-24T10:50:44;13.70;99.90
9915;DHT22;4996;48.746;9.174;2023-04-24T10:53:15;13.30;99.90
9915;DHT22;4996;48.746;9.174;2023-04-24T10:55:43;13.10;99.90
9915;DHT22;4996;48.746;9.174;2023-04-24T10:58:09;13.00;99.90
9915;DHT22;4996;48.746;9.174;2023-04-24T11:00:37;13.20;99.90
9915;DHT22;4996;48.746;9.174;2023-04-24T11:03:05;13.20;99.90
9915;DHT22;4996;48.746;9.174;2023-04-24T11:05:55;13.40;99.90
9915;DHT22;4996;48.746;9.174;2023-04-24T11:08:43;13.50;99.90
9915;DHT22;4996;48.746;9.174;2023-04-24T11:11:14;13.30;99.90
9915;DHT22;4996;48.746;9.174;2023-04-24T11:16:27;13.30;99.90
9915;DHT22;4996;48.746;9.174;2023-04-24T11:21:39;12.90;99.90
9915;DHT22;4996;48.746;9.174;2023-04-24T11:24:30;12.90;99.90
9915;DHT22;4996;48.746;9.174;2023-04-24T11:27:15;12.70;99.90
9915;DHT22;4996;48.746;9.174;2023-04-24T11:32:28;13.00;99.90
9915;DHT22;4996;48.746;9.174;2023-04-24T11:34:55;13.50;99.90
9915;DHT22;4996;48.746;9.174;2023-04-24T11:37:22;13.70;99.90
9915;DHT22;4996;48.746;9.174;2023-04-24T11:39:53;14.40;99.90
9915;DHT22;4996;48.746;9.174;2023-04-24T11:42:21;14.70;99.90
9915;DHT22;4996;48.746;9.174;2023-04-24T11:44:47;14.90;99.90
9915;DHT22;4996;48.746;9.174;2023-04-24T11:47:14;14.70;99.90
9915;DHT22;4996;48.746;9.174;2023-04-24T11:49:39;13.90;99.90
9915;DHT22;4996;48.746;9.174;2023-04-24T11:52:05;13.60;99.90
9915;DHT22;4996;48.746;9.174;2023-04-24T11:54:31;13.40;99.90
9915;DHT22;4996;48.746;9.174;2023-04-24T11:56:57;13.10;99.90
9915;DHT22;4996;48.746;9.174;2023-04-24T11:59:23;12.80;99.90
9915;DHT22;4996;48.746;9.174;2023-04-24T12:01:49;12.90;99.90
9915;DHT22;4996;48.746;9.174;2023-04-24T12:04:16;13.30;99.90
9915;DHT22;4996;48.746;9.174;2023-04-24T12:07:01;13.90;99.90
9915;DHT22;4996;48.746;9.174;2023-04-24T12:09:27;14.50;99.90
9915;DHT22;4996;48.746;9.174;2023-04-24T12:11:53;15.20;99.90
9915;DHT22;4996;48.746;9.174;2023-04-24T12:14:20;15.30;99.30
9915;DHT22;4996;48.746;9.174;2023-04-24T12:16:48;15.20;99.20
9915;DHT22;4996;48.746;9.174;2023-04-24T12:19:21;14.50;99.70
9915;DHT22;4996;48.746;9.174;2023-04-24T12:22:04;13.90;99.90
9915;DHT22;4996;48.746;9.174;2023-04-24T12:24:30;13.70;99.90
9915;DHT22;4996;48.746;9.174;2023-04-24T12:26:56;13.20;99.90
9915;DHT22;4996;48.746;9.174;2023-04-24T12:29:23;13.20;99.90
9915;DHT22;4996;48.746;9.174;2023-04-24T12:31:50;13.30;99.90
9915;DHT22;4996;48.746;9.174;2023-04-24T12:34:20;13.30;99.90
9915;DHT22;4996;48.746;9.174;2023-04-24T12:36:47;13.20;99.90
9915;DHT22;4996;48.746;9.174;2023-04-24T12:39:16;13.40;99.90
9915;DHT22;4996;48.746;9.174;2023-04-24T12:41:58;13.30;99.90
9915;DHT22;4996;48.746;9.174;2023-04-24T12:44:31;13.20;99.90
9915;DHT22;4996;48.746;9.174;2023-04-24T12:46:57;13.60;99.90
9915;DHT22;4996;48.746;9.174;2023-04-24T12:49:23;13.80;99.90
9915;DHT22;4996;48.746;9.174;2023-04-24T12:51:48;14.10;99.90
9915;DHT22;4996;48.746;9.174;2023-04-24T12:54:14;13.80;99.90
9915;DHT22;4996;48.746;9.174;2023-04-24T12:56:39;13.80;99.90
9915;DHT22;4996;48.746;9.174;2023-04-24T12:59:05;13.50;99.90
9915;DHT22;4996;48.746;9.174;2023-04-24T13:01:31;13.50;99.90
9915;DHT22;4996;48.746;9.174;2023-04-24T13:03:56;13.40;99.90
9915;DHT22;4996;48.746;9.174;2023-04-24T13:06:22;12.90;99.90
9915;DHT22;4996;48.746;9.174;2023-04-24T13:08:47;12.70;99.90
9915;DHT22;4996;48.746;9.174;2023-04-24T13:11:13;12.90;99.90
9915;DHT22;4996;48.746;9.174;2023-04-24T13:13:39;12.50;99.90
9915;DHT22;4996;48.746;9.174;2023-04-24T13:16:05;12.40;99.90
9915;DHT22;4996;48.746;9.174;2023-04-24T13:18:31;12.30;99.90
9915;DHT22;4996;48.746;9.174;2023-04-24T13:20:56;12.50;99.90
9915;DHT22;4996;48.746;9.174;2023-04-24T13:23:22;12.30;99.90
9915;DHT22;4996;48.746;9.174;2023-04-24T13:25:48;12.40;99.90
9915;DHT22;4996;48.746;9.174;2023-04-24T13:28:13;12.50;99.90
9915;DHT22;4996;48.746;9.174;2023-04-24T13:30:39;13.00;99.90
9915;DHT22;4996;48.746;9.174;2023-04-24T13:33:05;13.40;99.90
9915;DHT22;4996;48.746;9.174;2023-04-24T13:35:30;13.80;99.90
9915;DHT22;4996;48.746;9.174;2023-04-24T13:37:57;14.00;99.90
9915;DHT22;4996;48.746;9.174;2023-04-24T13:40:23;13.80;99.90
9915;DHT22;4996;48.746;9.174;2023-04-24T13:42:49;13.60;99.90
9915;DHT22;4996;48.746;9.174;2023-04-24T13:45:14;13.30;99.90
9915;DHT22;4996;48.746;9.174;2023-04-24T13:47:40;13.30;99.90
9915;DHT22;4996;48.746;9.174;2023-04-24T13:50:08;13.10;99.90
9915;DHT22;4996;48.746;9.174;2023-04-24T13:52:33;13.00;99.90
9915;DHT22;4996;48.746;9.174;2023-04-24T13:54:59;12.40;99.90
9915;DHT22;4996;48.746;9.174;2023-04-24T13:57:25;12.30;99.90
9915;DHT22;4996;48.746;9.174;2023-04-24T13:59:50;12.10;99.90
9915;DHT22;4996;48.746;9.174;2023-04-24T14:02:16;11.80;99.90
9915;DHT22;4996;48.746;9.174;2023-04-24T14:04:41;11.80;99.90
9915;DHT22;4996;48.746;9.174;2023-04-24T14:07:07;11.90;99.90
9915;DHT22;4996;48.746;9.174;2023-04-24T14:09:33;12.20;99.90
9915;DHT22;4996;48.746;9.174;2023-04-24T14:11:59;12.30;99.90
9915;DHT22;4996;48.746;9.174;2023-04-24T14:14:26;12.40;99.90
9915;DHT22;4996;48.746;9.174;2023-04-24T14:16:52;12.50;99.90
9915;DHT22;4996;48.746;9.174;2023-04-24T14:19:18;12.80;99.90
9915;DHT22;4996;48.746;9.174;2023-04-24T14:21:43;12.70;99.90
9915;DHT22;4996;48.746;9.174;2023-04-24T14:24:09;12.50;99.90
9915;DHT22;4996;48.746;9.174;2023-04-24T14:26:34;12.40;99.90
9915;DHT22;4996;48.746;9.174;2023-04-24T14:29:00;12.10;99.90
9915;DHT22;4996;48.746;9.174;2023-04-24T14:31:26;12.10;99.90
9915;DHT22;4996;48.746;9.174;2023-04-24T14:33:51;11.80;99.90
9915;DHT22;4996;48.746;9.174;2023-04-24T14:36:17;11.40;99.90
9915;DHT22;4996;48.746;9.174;2023-04-24T14:38:42;11.30;99.90
9915;DHT22;4996;48.746;9.174;2023-04-24T14:41:08;11.30;99.90
9915;DHT22;4996;48.746;9.174;2023-04-24T14:43:35;11.50;99.90
9915;DHT22;4996;48.746;9.174;2023-04-24T14:46:02;11.70;99.90
9915;DHT22;4996;48.746;9.174;2023-04-24T14:48:27;11.70;99.90
9915;DHT22;4996;48.746;9.174;2023-04-24T14:50:53;11.80;99.90
9915;DHT22;4996;48.746;9.174;2023-04-24T14:53:18;12.00;99.90
9915;DHT22;4996;48.746;9.174;2023-04-24T14:55:44;12.00;99.90
9915;DHT22;4996;48.746;9.174;2023-04-24T14:58:10;12.10;99.90
9915;DHT22;4996;48.746;9.174;2023-04-24T15:00:35;12.20;99.90
9915;DHT22;4996;48.746;9.174;2023-04-24T15:03:01;12.40;99.90
9915;DHT22;4996;48.746;9.174;2023-04-24T15:05:26;12.40;99.90
9915;DHT22;4996;48.746;9.174;2023-04-24T15:07:52;12.50;99.90
9915;DHT22;4996;48.746;9.174;2023-04-24T15:10:18;12.50;99.90
9915;DHT22;4996;48.746;9.174;2023-04-24T15:12:43;12.60;99.90
9915;DHT22;4996;48.746;9.174;2023-04-24T15:15:09;12.50;99.90
9915;DHT22;4996;48.746;9.174;2023-04-24T15:17:35;12.70;99.90
9915;DHT22;4996;48.746;9.174;2023-04-24T15:20:01;12.50;99.90
9915;DHT22;4996;48.746;9.174;2023-04-24T15:22:28;12.60;99.90
9915;DHT22;4996;48.746;9.174;2023-04-24T15:24:53;12.60;99.90
9915;DHT22;4996;48.746;9.174;2023-04-24T15:27:19;12.40;99.90
9915;DHT22;4996;48.746;9.174;2023-04-24T15:29:44;12.10;99.90
9915;DHT22;4996;48.746;9.174;2023-04-24T15:32:10;12.10;99.90
9915;DHT22;4996;48.746;9.174;2023-04-24T15:34:35;12.20;99.90
9915;DHT22;4996;48.746;9.174;2023-04-24T15:37:01;12.10;99.90
9915;DHT22;4996;48.746;9.174;2023-04-24T15:39:26;12.30;99.90
9915;DHT22;4996;48.746;9.174;2023-04-24T15:41:52;12.20;99.90
9915;DHT22;4996;48.746;9.174;2023-04-24T15:44:19;12.20;99.90
9915;DHT22;4996;48.746;9.174;2023-04-24T15:46:45;11.70;99.90
9915;DHT22;4996;48.746;9.174;2023-04-24T15:49:10;11.30;99.90
9915;DHT22;4996;48.746;9.174;2023-04-24T15:51:36;11.60;99.90
9915;DHT22;4996;48.746;9.174;2023-04-24T15:54:02;11.70;99.90
9915;DHT22;4996;48.746;9.174;2023-04-24T15:56:27;11.70;99.90
9915;DHT22;4996;48.746;9.174;2023-04-24T15:58:53;11.90;99.90
9915;DHT22;4996;48.746;9.174;2023-04-24T16:01:19;12.00;99.90
9915;DHT22;4996;48.746;9.174;2023-04-24T16:03:45;12.10;99.90
9915;DHT22;4996;48.746;9.174;2023-04-24T16:06:11;12.00;99.90
9915;DHT22;4996;48.746;9.174;2023-04-24T16:08:37;12.00;99.90